createdAt,value
2018-01-05T00:00:06.666Z,4.30
2018-01-05T00:02:32.367Z,3.93
2018-01-05T00:04:58.048Z,5.33
2018-01-05T00:07:23.745Z,3.90
2018-01-05T00:09:49.420Z,3.43
2018-01-05T00:12:15.099Z,2.80
2018-01-05T00:14:40.948Z,3.20
2018-01-05T00:17:06.650Z,2.33
2018-01-05T00:19:32.330Z,3.00
2018-01-05T00:21:58.053Z,4.20
2018-01-05T00:24:23.722Z,3.47
2018-01-05T00:26:49.398Z,3.80
2018-01-05T00:29:15.349Z,3.07
2018-01-05T00:31:41.041Z,3.63
2018-01-05T00:34:06.722Z,3.40
2018-01-05T00:36:32.802Z,3.30
2018-01-05T00:38:58.507Z,3.35
2018-01-05T00:41:24.198Z,2.17
2018-01-05T00:43:49.913Z,3.50
2018-01-05T00:46:15.597Z,2.80
2018-01-05T00:48:41.281Z,2.03
2018-01-05T00:51:07.002Z,2.37
2018-01-05T00:53:32.697Z,3.60
2018-01-05T00:55:58.383Z,2.20
2018-01-05T00:58:24.075Z,2.70
2018-01-05T01:00:49.756Z,2.27
2018-01-05T01:03:15.449Z,1.70
2018-01-05T01:05:41.125Z,2.20
2018-01-05T01:08:06.854Z,2.37
2018-01-05T01:10:32.827Z,2.37
2018-01-05T01:12:58.520Z,1.43
2018-01-05T01:15:24.227Z,2.40
2018-01-05T01:17:49.916Z,1.90
2018-01-05T01:20:15.613Z,2.27
2018-01-05T01:22:41.310Z,2.13
2018-01-05T01:25:07.008Z,1.70
2018-01-05T01:27:32.701Z,2.63
2018-01-05T01:29:58.750Z,1.23
2018-01-05T01:32:24.442Z,1.35
2018-01-05T01:34:50.148Z,1.27
2018-01-05T01:37:15.850Z,1.47
2018-01-05T01:39:41.530Z,1.70
2018-01-05T01:42:07.222Z,1.07
2018-01-05T01:44:32.909Z,1.90
2018-01-05T01:46:58.608Z,1.67
2018-01-05T01:49:24.292Z,1.70
2018-01-05T01:51:50.014Z,1.30
2018-01-05T01:54:15.701Z,1.27
2018-01-05T01:56:41.386Z,1.43
2018-01-05T01:59:07.087Z,1.20
2018-01-05T02:01:32.793Z,1.73
2018-01-05T02:03:58.482Z,2.20
2018-01-05T02:06:24.152Z,1.40
2018-01-05T02:08:49.856Z,1.50
2018-01-05T02:11:15.529Z,1.03
2018-01-05T02:13:41.192Z,2.37
2018-01-05T02:16:06.876Z,1.77
2018-01-05T02:18:32.570Z,2.47
2018-01-05T02:20:58.813Z,1.50
2018-01-05T02:23:24.508Z,1.90
2018-01-05T02:25:50.201Z,1.93
2018-01-05T02:28:15.875Z,2.27
2018-01-05T02:30:41.750Z,2.57
2018-01-05T02:33:07.433Z,1.63
2018-01-05T02:35:33.114Z,2.63
2018-01-05T02:37:58.795Z,2.10
2018-01-05T02:40:24.497Z,2.60
2018-01-05T02:42:50.187Z,1.53
2018-01-05T02:45:15.873Z,1.93
2018-01-05T02:47:41.761Z,1.93
2018-01-05T02:50:07.434Z,1.90
2018-01-05T02:52:33.110Z,1.53
2018-01-05T02:54:58.815Z,2.27
2018-01-05T02:57:24.500Z,2.00
2018-01-05T02:59:50.175Z,2.60
2018-01-05T03:02:15.862Z,1.83
2018-01-05T03:04:41.536Z,1.63
2018-01-05T03:07:07.227Z,1.90
2018-01-05T03:09:32.910Z,2.27
2018-01-05T03:11:58.912Z,1.70
2018-01-05T03:14:24.603Z,2.20
2018-01-05T03:16:50.282Z,1.30
2018-01-05T03:19:15.978Z,1.37
2018-01-05T03:21:41.644Z,2.00
2018-01-05T03:24:07.316Z,2.70
2018-01-05T03:26:33.205Z,1.70
2018-01-05T03:28:58.936Z,2.73
2018-01-05T03:31:24.572Z,2.57
2018-01-05T03:33:50.273Z,2.33
2018-01-05T03:36:15.957Z,2.63
2018-01-05T03:38:41.634Z,1.60
2018-01-05T03:41:08.166Z,2.40
2018-01-05T03:43:33.847Z,2.40
2018-01-05T03:45:59.537Z,2.17
2018-01-05T03:48:25.284Z,3.20
2018-01-05T03:50:50.965Z,2.20
2018-01-05T03:53:16.638Z,1.73
2018-01-05T03:55:42.344Z,2.20
2018-01-05T03:58:08.035Z,2.43
2018-01-05T04:00:33.713Z,2.10
2018-01-05T04:02:59.556Z,1.43
2018-01-05T04:05:25.249Z,2.03
2018-01-05T04:07:50.916Z,1.77
2018-01-05T04:10:16.613Z,2.10
2018-01-05T04:12:42.281Z,3.10
2018-01-05T04:15:07.990Z,1.83
2018-01-05T04:17:33.885Z,1.27
2018-01-05T04:19:59.589Z,1.27
2018-01-05T04:22:25.257Z,1.87
2018-01-05T04:24:50.946Z,1.70
2018-01-05T04:27:16.620Z,1.47
2018-01-05T04:29:42.292Z,2.13
2018-01-05T04:32:08.016Z,1.83
2018-01-05T04:34:33.702Z,1.67
2018-01-05T04:36:59.373Z,1.67
2018-01-05T04:39:25.061Z,1.90
2018-01-05T04:41:50.736Z,1.83
2018-01-05T04:44:16.414Z,1.40
2018-01-05T04:46:42.247Z,2.40
2018-01-05T04:49:07.928Z,3.20
2018-01-05T04:51:33.608Z,2.87
2018-01-05T04:53:59.319Z,1.80
2018-01-05T04:56:24.993Z,2.50
2018-01-05T04:58:50.665Z,2.40
2018-01-05T05:01:16.900Z,2.30
2018-01-05T05:03:42.585Z,1.85
2018-01-05T05:06:08.256Z,2.57
2018-01-05T05:08:33.964Z,1.63
2018-01-05T05:10:59.632Z,1.93
2018-01-05T05:13:25.322Z,2.93
2018-01-05T05:15:51.009Z,1.93
2018-01-05T05:18:16.693Z,3.00
2018-01-05T05:20:42.374Z,2.10
2018-01-05T05:23:08.076Z,1.60
2018-01-05T05:25:33.782Z,1.77
2018-01-05T05:27:59.467Z,2.13
2018-01-05T05:30:25.161Z,1.90
2018-01-05T05:32:51.161Z,2.10
2018-01-05T05:35:16.850Z,2.92
2018-01-05T05:37:42.543Z,2.73
2018-01-05T05:40:08.214Z,2.13
2018-01-05T05:42:33.891Z,2.90
2018-01-05T05:44:59.600Z,2.70
2018-01-05T05:47:25.286Z,2.20
2018-01-05T05:49:50.972Z,2.00
2018-01-05T05:52:16.829Z,2.10
2018-01-05T05:54:42.517Z,2.00
2018-01-05T05:57:08.196Z,3.50
2018-01-05T05:59:34.747Z,3.50
2018-01-05T06:02:00.446Z,2.67
2018-01-05T06:04:26.130Z,3.00
2018-01-05T06:06:51.820Z,2.93
2018-01-05T06:09:17.493Z,2.00
2018-01-05T06:11:43.163Z,2.27
2018-01-05T06:14:08.864Z,1.90
2018-01-05T06:16:34.557Z,3.23
2018-01-05T06:19:00.245Z,1.60
2018-01-05T06:21:26.107Z,1.60
2018-01-05T06:23:51.806Z,2.30
2018-01-05T06:26:17.489Z,2.47
2018-01-05T06:28:43.176Z,1.90
2018-01-05T06:31:08.853Z,2.30
2018-01-05T06:33:34.528Z,2.20
2018-01-05T06:36:00.236Z,2.30
2018-01-05T06:38:25.918Z,2.50
2018-01-05T06:43:24.476Z,1.58
2018-01-05T06:45:50.148Z,2.53
2018-01-05T06:48:15.816Z,1.97
2018-01-05T06:50:41.493Z,1.77
2018-01-05T06:53:07.454Z,2.97
2018-01-05T06:55:33.149Z,2.00
2018-01-05T06:57:58.824Z,1.73
2018-01-05T07:00:24.701Z,1.77
2018-01-05T07:02:50.388Z,1.97
2018-01-05T07:05:16.066Z,2.93
2018-01-05T07:07:42.077Z,2.40
2018-01-05T07:10:07.762Z,1.98
2018-01-05T07:12:33.433Z,2.30
2018-01-05T07:14:59.166Z,1.53
2018-01-05T07:17:24.861Z,2.40
2018-01-05T07:19:50.572Z,1.63
2018-01-05T07:22:16.277Z,2.63
2018-01-05T07:24:41.975Z,1.80
2018-01-05T07:27:07.649Z,1.80
2018-01-05T07:30:03.647Z,1.60
2018-01-05T07:32:29.426Z,1.73
2018-01-05T07:34:55.200Z,1.90
2018-01-05T07:37:20.976Z,1.40
2018-01-05T07:39:46.746Z,1.10
2018-01-05T07:42:12.844Z,1.33
2018-01-05T07:44:38.639Z,2.05
2018-01-05T07:47:04.422Z,1.17
2018-01-05T07:49:30.222Z,1.77
2018-01-05T07:51:55.986Z,1.37
2018-01-05T07:54:21.766Z,2.03
2018-01-05T07:56:47.575Z,1.47
2018-01-05T07:59:13.352Z,1.80
2018-01-05T08:01:39.175Z,5.50
2018-01-05T08:04:05.403Z,4.90
2018-01-05T08:06:31.188Z,5.32
2018-01-05T08:08:56.974Z,4.33
2018-01-05T08:11:22.922Z,3.77
2018-01-05T08:13:48.716Z,9.33
2018-01-05T08:16:14.531Z,5.83
2018-01-05T08:18:40.319Z,4.80
2018-01-05T08:21:06.120Z,7.83
2018-01-05T08:23:39.006Z,2.80
2018-01-05T08:26:06.255Z,2.60
2018-01-05T08:28:32.046Z,6.32
2018-01-05T08:30:57.814Z,1.73
2018-01-05T08:33:23.608Z,2.70
2018-01-05T08:35:49.381Z,2.03
2018-01-05T08:38:15.214Z,2.00
2018-01-05T08:40:41.037Z,1.60
2018-01-05T08:43:06.823Z,1.37
2018-01-05T08:45:32.611Z,3.43
2018-01-05T08:47:58.406Z,2.20
2018-01-05T08:50:24.187Z,2.33
2018-01-05T08:52:50.015Z,1.60
2018-01-05T08:55:15.819Z,1.93
2018-01-05T08:57:41.608Z,1.90
2018-01-05T09:00:07.441Z,2.10
2018-01-05T09:02:33.247Z,3.07
2018-01-05T09:04:59.039Z,2.50
2018-01-05T09:07:24.841Z,7.47
2018-01-05T09:09:50.634Z,1.80
2018-01-05T09:12:16.425Z,2.10
2018-01-05T09:14:42.243Z,2.40
2018-01-05T09:17:08.031Z,2.10
2018-01-05T09:19:33.806Z,2.60
2018-01-05T09:21:59.610Z,2.30
2018-01-05T09:24:25.394Z,2.67
2018-01-05T09:26:51.181Z,2.33
2018-01-05T09:29:16.985Z,2.00
2018-01-05T09:31:42.762Z,2.70
2018-01-05T09:34:08.542Z,1.40
2018-01-05T09:36:34.370Z,2.33
2018-01-05T09:39:00.160Z,2.37
2018-01-05T09:41:25.942Z,2.70
2018-01-05T09:43:51.911Z,3.20
2018-01-05T09:46:17.733Z,1.90
2018-01-05T09:48:43.510Z,2.67
2018-01-05T09:51:09.348Z,2.47
2018-01-05T09:53:35.125Z,2.53
2018-01-05T09:56:00.895Z,2.20
2018-01-05T09:58:26.706Z,1.83
2018-01-05T10:00:52.504Z,3.40
2018-01-05T10:03:18.302Z,2.47
2018-01-05T10:05:44.115Z,2.97
2018-01-05T10:08:09.907Z,1.97
2018-01-05T10:10:35.679Z,2.50
2018-01-05T10:13:01.499Z,2.57
2018-01-05T10:15:27.278Z,2.70
2018-01-05T10:17:53.067Z,3.23
2018-01-05T10:20:19.190Z,1.90
2018-01-05T10:22:44.974Z,1.95
2018-01-05T10:25:10.766Z,3.37
2018-01-05T10:27:36.617Z,3.20
2018-01-05T10:30:02.419Z,1.83
2018-01-05T10:32:28.188Z,2.50
2018-01-05T10:34:53.979Z,3.07
2018-01-05T10:37:19.742Z,3.40
2018-01-05T10:39:45.513Z,3.40
2018-01-05T10:42:11.314Z,2.23
2018-01-05T10:44:37.122Z,3.30
2018-01-05T10:47:02.894Z,9.43
2018-01-05T10:49:28.721Z,8.03
2018-01-05T10:51:54.503Z,6.47
2018-01-05T10:54:20.286Z,14.03
2018-01-05T10:56:46.091Z,36.20
2018-01-05T10:59:11.874Z,12.17
2018-01-05T11:01:37.650Z,4.13
2018-01-05T11:04:03.457Z,4.93
2018-01-05T11:06:29.240Z,4.07
2018-01-05T11:08:55.032Z,4.53
2018-01-05T11:11:20.854Z,4.80
2018-01-05T11:13:46.634Z,3.57
2018-01-05T11:16:12.422Z,10.87
2018-01-05T11:18:38.235Z,4.67
2018-01-05T11:21:04.019Z,5.30
2018-01-05T11:23:29.795Z,4.13
2018-01-05T11:25:55.597Z,4.50
2018-01-05T11:28:21.388Z,4.30
2018-01-05T11:30:47.157Z,4.27
2018-01-05T11:33:12.964Z,4.83
2018-01-05T11:35:38.752Z,4.93
2018-01-05T11:38:04.542Z,3.50
2018-01-05T11:40:30.346Z,3.77
2018-01-05T11:42:56.128Z,4.00
2018-01-05T11:45:21.919Z,4.57
2018-01-05T11:47:47.727Z,3.50
2018-01-05T11:50:13.504Z,51.73
2018-01-05T11:52:39.275Z,10.73
2018-01-05T11:55:05.044Z,15.03
2018-01-05T11:57:31.205Z,19.50
2018-01-05T11:59:56.992Z,10.68
2018-01-05T12:02:22.770Z,5.37
2018-01-05T12:04:48.570Z,15.40
2018-01-05T12:07:14.351Z,5.30
2018-01-05T12:09:40.142Z,6.40
2018-01-05T12:12:05.942Z,3.70
2018-01-05T12:14:31.727Z,4.00
2018-01-05T12:16:57.502Z,5.10
2018-01-05T12:19:30.224Z,9.00
2018-01-05T12:21:56.009Z,4.65
2018-01-05T12:24:21.794Z,4.70
2018-01-05T12:26:47.784Z,5.10
2018-01-05T12:29:13.601Z,5.27
2018-01-05T12:31:39.379Z,5.33
2018-01-05T12:34:05.183Z,6.63
2018-01-05T12:36:30.971Z,7.00
2018-01-05T12:38:56.755Z,4.97
2018-01-05T12:41:22.559Z,6.20
2018-01-05T12:43:48.598Z,16.83
2018-01-05T12:46:14.391Z,5.75
2018-01-05T12:48:40.208Z,4.70
2018-01-05T12:51:05.978Z,4.67
2018-01-05T12:53:31.768Z,36.77
2018-01-05T12:55:57.818Z,5.10
2018-01-05T12:58:23.611Z,5.35
2018-01-05T13:00:49.386Z,5.87
2018-01-05T13:03:15.264Z,7.17
2018-01-05T13:05:41.072Z,13.07
2018-01-05T13:08:06.885Z,16.10
2018-01-05T13:10:32.663Z,4.63
2018-01-05T13:12:58.698Z,4.00
2018-01-05T13:15:24.485Z,3.80
2018-01-05T13:17:50.684Z,4.13
2018-01-05T13:20:16.544Z,3.92
2018-01-05T13:22:43.142Z,3.67
2018-01-05T13:25:17.016Z,4.95
2018-01-05T13:27:43.686Z,9.93
2018-01-05T13:30:17.495Z,10.52
2018-01-05T13:32:44.436Z,15.43
2018-01-05T13:35:10.383Z,4.47
2018-01-05T13:37:36.193Z,4.10
2018-01-05T13:40:02.420Z,4.57
2018-01-05T13:42:28.223Z,5.93
2018-01-05T13:44:54.345Z,4.27
2018-01-05T13:47:20.472Z,31.52
2018-01-05T13:49:46.367Z,5.68
2018-01-05T13:52:12.195Z,24.23
2018-01-05T13:54:38.135Z,6.07
2018-01-05T13:57:04.161Z,25.73
2018-01-05T13:59:36.819Z,9.50
2018-01-05T14:02:02.759Z,6.70
2018-01-05T14:04:28.559Z,7.07
2018-01-05T14:06:54.354Z,9.53
2018-01-05T14:09:20.138Z,13.17
2018-01-05T14:11:46.756Z,5.57
2018-01-05T14:14:12.971Z,6.37
2018-01-05T14:16:38.760Z,5.25
2018-01-05T14:19:04.551Z,5.60
2018-01-05T14:21:30.364Z,5.60
2018-01-05T14:23:56.158Z,4.90
2018-01-05T14:26:21.995Z,4.97
2018-01-05T14:28:47.799Z,2.80
2018-01-05T14:31:13.599Z,5.07
2018-01-05T14:33:39.417Z,4.63
2018-01-05T14:36:05.498Z,2.67
2018-01-05T14:38:31.331Z,3.35
2018-01-05T14:40:57.282Z,2.77
2018-01-05T14:43:23.117Z,4.47
2018-01-05T14:45:49.504Z,4.83
2018-01-05T14:48:15.298Z,2.65
2018-01-05T14:50:41.430Z,3.60
2018-01-05T14:53:07.266Z,3.53
2018-01-05T14:55:33.047Z,3.27
2018-01-05T14:57:59.235Z,4.97
2018-01-05T15:00:25.035Z,5.03
2018-01-05T15:02:50.820Z,4.37
2018-01-05T15:05:16.758Z,5.10
2018-01-05T15:07:42.571Z,4.70
2018-01-05T15:10:08.338Z,3.83
2018-01-05T15:12:34.156Z,3.80
2018-01-05T15:14:59.938Z,5.00
2018-01-05T15:17:25.719Z,4.60
2018-01-05T15:19:51.515Z,6.00
2018-01-05T15:22:17.307Z,4.80
2018-01-05T15:24:43.121Z,4.50
2018-01-05T15:27:08.894Z,4.90
2018-01-05T15:29:34.698Z,5.00
2018-01-05T15:32:00.494Z,4.60
2018-01-05T15:34:26.290Z,5.83
2018-01-05T15:36:52.329Z,5.30
2018-01-05T15:39:18.148Z,5.32
2018-01-05T15:41:43.935Z,4.37
2018-01-05T15:44:09.908Z,4.80
2018-01-05T15:46:35.725Z,6.30
2018-01-05T15:49:01.543Z,5.37
2018-01-05T15:51:27.355Z,7.87
2018-01-05T15:53:53.143Z,5.40
2018-01-05T15:56:18.925Z,6.23
2018-01-05T15:58:44.720Z,6.40
2018-01-05T16:01:10.819Z,9.80
2018-01-05T16:03:36.634Z,9.50
2018-01-05T16:06:02.447Z,6.10
2018-01-05T16:08:28.247Z,8.77
2018-01-05T16:10:54.022Z,7.20
2018-01-05T16:13:19.819Z,8.03
2018-01-05T16:15:45.632Z,5.70
2018-01-05T16:18:11.451Z,6.00
2018-01-05T16:20:37.253Z,4.63
2018-01-05T16:23:03.050Z,4.20
2018-01-05T16:25:28.852Z,5.57
2018-01-05T16:27:54.656Z,4.23
2018-01-05T16:30:20.447Z,4.77
2018-01-05T16:32:46.239Z,4.27
2018-01-05T16:35:12.167Z,4.57
2018-01-05T16:37:37.966Z,5.80
2018-01-05T16:40:03.818Z,4.87
2018-01-05T16:42:29.634Z,4.77
2018-01-05T16:44:55.408Z,3.80
2018-01-05T16:47:21.266Z,4.30
2018-01-05T16:49:47.060Z,4.97
2018-01-05T16:52:12.970Z,4.50
2018-01-05T16:54:38.763Z,5.00
2018-01-05T16:57:04.844Z,5.07
2018-01-05T16:59:30.623Z,5.30
2018-01-05T17:01:56.414Z,4.40
2018-01-05T17:04:22.307Z,5.87
2018-01-05T17:06:48.092Z,4.67
2018-01-05T17:09:33.432Z,4.43
2018-01-05T17:11:59.553Z,4.75
2018-01-05T17:14:25.407Z,5.62
2018-01-05T17:19:23.232Z,5.82
2018-01-05T17:21:49.128Z,4.83
2018-01-05T17:24:14.970Z,5.80
2018-01-05T17:26:40.967Z,6.13
2018-01-05T17:29:06.811Z,5.57
2018-01-05T17:31:33.111Z,6.10
2018-01-05T17:33:58.910Z,5.93
2018-01-05T17:36:24.978Z,6.70
2018-01-05T17:38:50.834Z,6.15
2018-01-05T17:41:16.618Z,6.67
2018-01-05T17:43:42.390Z,7.53
2018-01-05T17:46:08.206Z,4.20
2018-01-05T17:48:34.018Z,4.77
2018-01-05T17:50:59.801Z,5.93
2018-01-05T17:53:25.819Z,5.87
2018-01-05T17:55:51.601Z,9.27
2018-01-05T17:58:24.255Z,7.83
2018-01-05T18:00:50.268Z,7.03
2018-01-05T18:03:16.059Z,8.10
2018-01-05T18:05:41.839Z,9.93
2018-01-05T18:08:08.808Z,9.10
2018-01-05T18:10:34.583Z,9.57
2018-01-05T18:13:00.550Z,8.63
2018-01-05T18:15:26.360Z,9.13
2018-01-05T18:17:52.330Z,9.83
2018-01-05T18:20:18.131Z,9.60
2018-01-05T18:22:44.549Z,10.73
2018-01-05T18:25:10.347Z,11.38
2018-01-05T18:27:36.127Z,11.00
2018-01-05T18:30:02.188Z,8.50
2018-01-05T18:32:27.974Z,9.93
2018-01-05T18:34:54.432Z,10.57
2018-01-05T18:37:20.223Z,10.75
2018-01-05T18:39:47.034Z,11.90
2018-01-05T18:42:12.846Z,10.55
2018-01-05T18:44:39.288Z,10.30
2018-01-05T18:47:07.740Z,11.05
2018-01-05T18:49:34.481Z,13.95
2018-01-05T18:52:00.293Z,11.43
2018-01-05T18:54:26.096Z,11.80
2018-01-05T18:56:52.123Z,12.70
2018-01-05T18:59:17.906Z,12.80
2018-01-05T19:01:43.867Z,12.00
2018-01-05T19:04:09.692Z,10.50
2018-01-05T19:06:35.486Z,11.07
2018-01-05T19:11:33.925Z,12.32
2018-01-05T19:13:59.719Z,12.50
2018-01-05T19:16:25.506Z,11.67
2018-01-05T19:18:51.294Z,11.97
2018-01-05T19:21:17.084Z,10.93
2018-01-05T19:23:43.074Z,12.97
2018-01-05T19:26:08.854Z,12.00
2018-01-05T19:28:35.050Z,13.00
2018-01-05T19:31:00.906Z,12.68
2018-01-05T19:33:26.756Z,12.80
2018-01-05T19:35:52.552Z,12.47
2018-01-05T19:38:18.661Z,12.70
2018-01-05T19:40:44.534Z,12.93
2018-01-05T19:43:10.865Z,15.20
2018-01-05T19:45:37.008Z,18.30
2018-01-05T19:48:03.090Z,17.20
2018-01-05T19:50:29.070Z,16.70
2018-01-05T19:52:54.910Z,14.40
2018-01-05T19:55:21.137Z,13.10
2018-01-05T19:57:47.919Z,15.40
2018-01-05T20:00:14.050Z,14.93
2018-01-05T20:02:39.859Z,16.33
2018-01-05T20:05:06.058Z,15.40
2018-01-05T20:07:31.883Z,18.48
2018-01-05T20:09:57.667Z,18.63
2018-01-05T20:12:23.744Z,28.33
2018-01-05T20:14:50.504Z,30.45
2018-01-05T20:17:16.336Z,19.48
2018-01-05T20:19:42.258Z,17.73
2018-01-05T20:22:08.295Z,22.57
2018-01-05T20:24:34.107Z,40.22
2018-01-05T20:27:00.494Z,37.37
2018-01-05T20:29:27.153Z,18.65
2018-01-05T20:31:53.334Z,25.00
2018-01-05T20:34:19.205Z,17.90
2018-01-05T20:36:45.733Z,19.20
2018-01-05T20:39:12.278Z,30.80
2018-01-05T20:41:38.728Z,81.60
2018-01-05T20:44:06.570Z,35.63
2018-01-05T20:46:32.436Z,26.33
2018-01-05T20:48:58.517Z,53.57
2018-01-05T20:51:24.310Z,20.37
2018-01-05T20:53:50.110Z,17.93
2018-01-05T20:56:15.893Z,46.83
2018-01-05T20:58:41.696Z,36.97
2018-01-05T21:01:07.526Z,33.27
2018-01-05T21:03:33.359Z,17.03
2018-01-05T21:05:59.147Z,16.13
2018-01-05T21:08:24.927Z,19.53
2018-01-05T21:10:51.487Z,30.67
2018-01-05T21:13:17.267Z,17.77
2018-01-05T21:15:43.251Z,19.47
2018-01-05T21:18:09.055Z,21.57
2018-01-05T21:20:35.058Z,28.40
2018-01-05T21:23:00.848Z,18.70
2018-01-05T21:25:26.656Z,21.87
2018-01-05T21:27:52.438Z,37.20
2018-01-05T21:30:18.766Z,22.10
2018-01-05T21:32:44.569Z,18.33
2018-01-05T21:35:10.387Z,20.50
2018-01-05T21:37:36.166Z,21.47
2018-01-05T21:40:02.255Z,17.80
2018-01-05T21:42:28.078Z,34.55
2018-01-05T21:44:53.864Z,27.47
2018-01-05T21:47:20.742Z,37.80
2018-01-05T21:49:46.718Z,21.00
2018-01-05T21:52:12.496Z,18.23
2018-01-05T21:54:38.681Z,22.10
2018-01-05T21:57:04.523Z,32.72
2018-01-05T21:59:30.526Z,18.80
2018-01-05T22:01:56.344Z,16.90
2018-01-05T22:04:23.139Z,17.73
2018-01-05T22:06:48.978Z,15.70
2018-01-05T22:09:16.948Z,17.57
2018-01-05T22:11:43.193Z,18.75
2018-01-05T22:14:09.107Z,17.08
2018-01-05T22:16:34.891Z,41.60
2018-01-05T22:19:00.682Z,22.37
2018-01-05T22:21:26.494Z,19.63
2018-01-05T22:23:52.512Z,18.03
2018-01-05T22:26:18.619Z,25.40
2018-01-05T22:28:44.423Z,25.00
2018-01-05T22:31:13.460Z,26.47
2018-01-05T22:33:39.353Z,22.23
2018-01-05T22:36:05.176Z,19.17
2018-01-05T22:38:30.962Z,23.83
2018-01-05T22:40:56.998Z,18.60
2018-01-05T22:43:22.927Z,20.62
2018-01-05T22:45:48.777Z,20.73
2018-01-05T22:48:14.551Z,19.07
2018-01-05T22:50:40.340Z,19.90
2018-01-05T22:53:06.339Z,20.70
2018-01-05T22:55:32.236Z,19.40
2018-01-05T22:57:58.310Z,22.17
2018-01-05T23:00:24.142Z,21.90
2018-01-05T23:02:50.025Z,20.87
2018-01-05T23:05:15.866Z,23.67
2018-01-05T23:07:41.828Z,22.40
2018-01-05T23:10:07.598Z,29.87
2018-01-05T23:12:33.382Z,21.70
2018-01-05T23:14:59.206Z,32.37
2018-01-05T23:17:25.046Z,21.63
2018-01-05T23:19:50.874Z,19.20
2018-01-05T23:22:16.698Z,19.20
2018-01-05T23:24:42.720Z,17.53
2018-01-05T23:27:08.604Z,18.48
2018-01-05T23:29:34.377Z,17.30
2018-01-05T23:32:00.194Z,17.77
2018-01-05T23:34:25.980Z,18.17
2018-01-05T23:36:52.651Z,18.27
2018-01-05T23:39:18.782Z,18.10
2018-01-05T23:41:44.575Z,19.08
2018-01-05T23:44:10.847Z,18.80
2018-01-05T23:46:36.646Z,18.02
2018-01-05T23:49:02.589Z,18.30
2018-01-05T23:51:28.459Z,17.13
2018-01-05T23:53:54.348Z,17.90
2018-01-05T23:56:20.173Z,20.03
2018-01-05T23:58:46.978Z,18.30
